Time;durP1;ratioP1;P1;durP2;ratioP2;P2;SDS_P1;SDS_P2;PMS_P1;PMS_P2;Temp;Humidity;BMP_temperature;BMP_pressure;BME280_temperature;BME280_humidity;BME280_pressure;Samples;Min_cycle;Max_cycle;Signal;HPM_P1;HPM_P2
2023/04/24 00:00:27;;;;;;;9.95;6.85;;;11.20;99.90;;;;;;4847321;29;20562;-93
2023/04/24 00:02:56;;;;;;;8.52;6.30;;;11.20;99.90;;;;;;4828840;29;20045;-95
2023/04/24 00:05:25;;;;;;;10.52;7.57;;;11.30;99.90;;;;;;4828181;29;20056;-94
2023/04/24 00:07:54;;;;;;;9.35;5.80;;;11.60;99.90;;;;;;4829084;29;20049;-93
2023/04/24 00:10:25;;;;;;;9.27;6.72;;;11.20;99.90;;;;;;4842602;29;20458;-93
2023/04/24 00:13:03;;;;;;;;;;;;;;;;;;;;;
2023/04/24 00:15:54;;;;;;;;;;;;;;;;;;;;;
2023/04/24 00:18:41;;;;;;;8.45;5.32;;;11.20;99.90;;;;;;4859493;29;20109;-93
2023/04/24 00:21:09;;;;;;;7.75;5.68;;;11.20;99.90;;;;;;4828182;29;20054;-94
2023/04/24 00:23:41;;;;;;;10.43;5.97;;;11.20;99.90;;;;;;4827644;29;20054;-92
2023/04/24 00:26:10;;;;;;;4.95;3.53;;;11.70;99.90;;;;;;4842063;29;20133;-91
2023/04/24 00:28:36;;;;;;;4.78;2.60;;;11.10;99.90;;;;;;4827975;29;20076;-92
2023/04/24 00:31:04;;;;;;;5.65;1.58;;;11.10;99.90;;;;;;4832463;29;20107;-92
2023/04/24 00:33:30;;;;;;;4.00;1.40;;;11.00;99.90;;;;;;4854561;29;20140;-92
2023/04/24 00:35:58;;;;;;;2.78;1.13;;;10.90;99.90;;;;;;4842999;29;20120;-91
2023/04/24 00:38:24;;;;;;;3.17;0.95;;;10.90;99.90;;;;;;4842072;29;20049;-91
2023/04/24 00:40:53;;;;;;;2.83;1.02;;;10.80;99.90;;;;;;4827897;29;20053;-92
2023/04/24 00:43:20;;;;;;;2.90;1.10;;;10.70;99.90;;;;;;4834675;29;20109;-91
2023/04/24 00:45:46;;;;;;;3.13;0.90;;;11.60;99.90;;;;;;4833502;29;20057;-91
2023/04/24 00:48:17;;;;;;;2.35;1.00;;;10.70;99.90;;;;;;4830399;29;20118;-91
2023/04/24 00:50:45;;;;;;;1.67;0.77;;;10.60;99.90;;;;;;4842928;29;20053;-91
2023/04/24 00:53:16;;;;;;;3.20;0.80;;;10.60;99.90;;;;;;4848991;29;20057;-92
2023/04/24 00:55:47;;;;;;;2.25;0.70;;;11.20;99.90;;;;;;4848648;29;20545;-92
2023/04/24 00:58:13;;;;;;;1.00;0.63;;;11.20;99.90;;;;;;4832916;29;20045;-92
2023/04/24 01:00:43;;;;;;;0.82;0.50;;;10.50;99.90;;;;;;4832542;29;20053;-92
2023/04/24 01:03:10;;;;;;;0.88;0.60;;;10.50;99.90;;;;;;4833342;29;20052;-91
2023/04/24 01:05:36;;;;;;;2.72;0.60;;;10.50;99.90;;;;;;4848275;29;20060;-92
2023/04/24 01:08:03;;;;;;;1.70;0.60;;;10.40;99.90;;;;;;4839419;29;20038;-91
2023/04/24 01:10:30;;;;;;;3.00;0.70;;;10.40;99.90;;;;;;4836849;29;20050;-91
2023/04/24 01:12:57;;;;;;;2.08;0.82;;;10.40;99.90;;;;;;4833620;29;20046;-92
2023/04/24 01:15:26;;;;;;;3.25;0.70;;;10.40;99.90;;;;;;4852119;29;20041;-92
2023/04/24 01:17:51;;;;;;;1.20;0.70;;;10.40;99.90;;;;;;4857550;29;20105;-92
2023/04/24 01:20:17;;;;;;;3.78;0.70;;;10.40;99.90;;;;;;4845046;29;20049;-93
2023/04/24 01:22:53;;;;;;;0.90;0.60;;;10.40;99.90;;;;;;4845817;29;20054;-92
2023/04/24 01:25:19;;;;;;;1.23;0.77;;;10.80;99.90;;;;;;4848811;29;20129;-92
2023/04/24 01:27:45;;;;;;;1.23;0.90;;;10.30;99.90;;;;;;4848533;29;20065;-92
2023/04/24 01:30:14;;;;;;;1.48;0.90;;;10.30;99.90;;;;;;4850835;29;20053;-92
2023/04/24 01:32:51;;;;;;;;;;;;;;;;;;;;;
2023/04/24 01:36:20;;;;;;;1.38;0.98;;;10.30;99.90;;;;;;4837781;29;20050;-92
2023/04/24 01:38:20;;;;;;;1.27;0.80;;;10.30;99.90;;;;;;4838689;29;20136;-90
2023/04/24 01:40:49;;;;;;;4.07;0.90;;;10.20;99.90;;;;;;4847663;29;20055;-91
2023/04/24 01:43:18;;;;;;;3.08;0.93;;;10.80;99.90;;;;;;4853350;29;20490;-92
2023/04/24 01:45:44;;;;;;;2.08;1.10;;;10.20;99.90;;;;;;4853931;29;20171;-91
2023/04/24 01:48:23;;;;;;;2.78;1.30;;;10.20;99.90;;;;;;4842138;29;20038;-93
2023/04/24 01:50:49;;;;;;;4.05;1.50;;;10.10;99.90;;;;;;4844275;29;20049;-92
2023/04/24 01:53:17;;;;;;;5.43;1.30;;;10.10;99.90;;;;;;4833130;29;20122;-90
2023/04/24 01:55:43;;;;;;;4.47;1.67;;;10.10;99.90;;;;;;4840574;29;20067;-93
2023/04/24 01:58:09;;;;;;;3.05;1.20;;;10.10;99.90;;;;;;4846156;29;20553;-93
2023/04/24 02:00:37;;;;;;;1.77;1.50;;;10.10;99.90;;;;;;4830526;29;20057;-93
2023/04/24 02:03:03;;;;;;;2.15;1.60;;;10.10;99.90;;;;;;4830261;29;20081;-92
2023/04/24 02:05:29;;;;;;;3.03;1.70;;;10.10;99.90;;;;;;4832785;29;20141;-91
2023/04/24 02:07:55;;;;;;;6.63;2.10;;;10.00;99.90;;;;;;4856950;29;20077;-93
2023/04/24 02:10:20;;;;;;;3.95;2.28;;;10.00;99.90;;;;;;4829886;29;20163;-93
2023/04/24 02:12:48;;;;;;;2.50;2.00;;;10.00;99.90;;;;;;4830049;29;20184;-93
2023/04/24 02:15:14;;;;;;;3.67;2.45;;;10.30;99.90;;;;;;4841704;29;20499;-94
2023/04/24 02:17:40;;;;;;;3.40;2.30;;;10.00;99.90;;;;;;4839631;29;20132;-94
2023/04/24 02:20:07;;;;;;;4.07;2.58;;;10.50;99.90;;;;;;4829239;29;20136;-93
2023/04/24 02:22:33;;;;;;;4.60;3.00;;;10.00;99.90;;;;;;4844635;29;20045;-91
2023/04/24 02:24:58;;;;;;;3.85;3.20;;;10.00;99.90;;;;;;4847030;29;20190;-94
2023/04/24 02:27:24;;;;;;;4.03;3.25;;;10.00;99.90;;;;;;4855097;29;20056;-92
2023/04/24 02:29:50;;;;;;;4.38;3.17;;;10.00;99.90;;;;;;4860525;29;20356;-93
2023/04/24 02:32:15;;;;;;;6.60;4.32;;;10.00;99.90;;;;;;4837871;29;20486;-92
2023/04/24 02:34:41;;;;;;;6.20;5.53;;;9.90;99.90;;;;;;4849385;29;20422;-93
2023/04/24 02:37:07;;;;;;;8.75;7.85;;;9.90;99.90;;;;;;4829776;29;20042;-92
2023/04/24 02:39:33;;;;;;;9.68;8.68;;;10.10;99.90;;;;;;4845106;29;20360;-93
2023/04/24 02:41:58;;;;;;;8.98;8.07;;;10.20;99.90;;;;;;4841675;29;20053;-92
2023/04/24 02:44:24;;;;;;;8.85;7.95;;;10.40;99.90;;;;;;4854939;29;20053;-92
2023/04/24 02:46:50;;;;;;;10.65;7.68;;;10.80;99.90;;;;;;4856391;29;20049;-93
2023/04/24 02:49:16;;;;;;;7.28;6.28;;;10.00;99.90;;;;;;4846650;29;20046;-94
2023/04/24 02:51:41;;;;;;;9.02;6.05;;;10.00;99.90;;;;;;4852667;29;20407;-94
2023/04/24 02:54:13;;;;;;;6.30;5.63;;;10.00;99.90;;;;;;4849001;29;20406;-94
2023/04/24 02:56:39;;;;;;;6.60;5.20;;;10.30;99.90;;;;;;4844136;29;20125;-94
2023/04/24 02:59:05;;;;;;;6.15;5.53;;;10.90;99.90;;;;;;4848728;29;20049;-93
2023/04/24 03:01:33;;;;;;;7.90;5.70;;;10.00;99.90;;;;;;4844426;29;20061;-93
2023/04/24 03:03:59;;;;;;;6.03;5.35;;;10.00;99.90;;;;;;4844721;29;20510;-94
2023/04/24 03:06:26;;;;;;;7.38;6.20;;;10.10;99.90;;;;;;4828539;29;20081;-93
2023/04/24 03:08:52;;;;;;;6.45;5.72;;;10.00;99.90;;;;;;4844892;29;20053;-92
2023/04/24 03:11:18;;;;;;;6.47;5.78;;;10.00;99.90;;;;;;4829179;29;20573;-92
2023/04/24 03:13:49;;;;;;;7.07;6.20;;;10.00;99.90;;;;;;4841632;29;20050;-92
2023/04/24 03:16:15;;;;;;;6.70;6.00;;;10.10;99.90;;;;;;4859919;23;20081;-92
2023/04/24 03:19:15;;;;;;;7.85;6.38;;;10.10;99.90;;;;;;4842915;29;20080;-93
2023/04/24 03:25:38;;;;;;;;;;;;;;;;;;;;;
2023/04/24 03:28:58;;;;;;;;;;;;;;;;;;;;;
2023/04/24 03:31:54;;;;;;;9.27;8.18;;;10.10;99.90;;;;;;4842148;29;20063;-94
2023/04/24 03:35:15;;;;;;;;;;;;;;;;;;;;;
2023/04/24 03:37:34;;;;;;;9.68;8.68;;;10.00;99.90;;;;;;4841275;29;20517;-93
2023/04/24 03:40:36;;;;;;;;;;;;;;;;;;;;;
2023/04/24 03:54:55;;;;;;;;;;;;;;;;;;;;;
2023/04/24 03:58:03;;;;;;;13.00;10.38;;;10.60;99.90;;;;;;4840536;29;20075;-92
2023/04/24 04:05:31;;;;;;;;;;;;;;;;;;;;;
2023/04/24 04:11:10;;;;;;;12.77;11.07;;;9.90;99.90;;;;;;4769990;30;20059;-94
2023/04/24 04:13:52;;;;;;;;;;;;;;;;;;;;;
2023/04/24 04:22:07;;;;;;;;;;;;;;;;;;;;;
2023/04/24 04:32:49;;;;;;;;;;;;;;;;;;;;;
2023/04/24 04:40:07;;;;;;;9.85;7.78;;;9.90;99.90;;;;;;4799970;29;20494;-92
2023/04/24 04:43:57;;;;;;;;;;;;;;;;;;;;;
2023/04/24 04:55:03;;;;;;;9.95;7.70;;;9.90;99.90;;;;;;4863405;29;20096;-95
2023/04/24 04:57:28;;;;;;;9.98;7.20;;;9.50;99.90;;;;;;4814730;29;20053;-96
2023/04/24 04:59:56;;;;;;;7.80;6.72;;;9.80;99.90;;;;;;4846008;29;20085;-94
2023/04/24 05:02:22;;;;;;;9.35;6.70;;;9.80;99.90;;;;;;4842901;29;20140;-94
2023/04/24 05:04:58;;;;;;;;;;;;;;;;;;;;;
2023/04/24 05:07:41;;;;;;;9.02;6.95;;;9.80;99.90;;;;;;4867776;29;20851;-93
2023/04/24 05:10:10;;;;;;;7.93;6.22;;;9.80;99.90;;;;;;4834343;29;20124;-94
2023/04/24 05:13:04;;;;;;;8.73;7.28;;;9.80;99.90;;;;;;4843827;29;20065;-93
2023/04/24 05:15:32;;;;;;;11.82;9.32;;;10.00;99.90;;;;;;4842150;29;20109;-95
2023/04/24 05:17:57;;;;;;;12.90;11.40;;;9.80;99.90;;;;;;4869075;29;20123;-95
2023/04/24 05:20:23;;;;;;;11.38;9.25;;;9.80;99.90;;;;;;4844043;29;20123;-95
2023/04/24 05:23:18;;;;;;;14.00;10.10;;;9.40;99.90;;;;;;4866381;29;20080;-96
2023/04/24 05:25:41;;;;;;;10.93;6.68;;;9.90;99.90;;;;;;4864479;29;20061;-95
2023/04/24 05:28:07;;;;;;;6.93;6.20;;;10.70;99.90;;;;;;4880257;29;20250;-95
2023/04/24 05:30:34;;;;;;;7.78;6.40;;;9.90;99.90;;;;;;4853891;29;20091;-95
2023/04/24 05:32:59;;;;;;;6.35;5.40;;;9.90;99.90;;;;;;4854745;29;20053;-96
2023/04/24 05:35:25;;;;;;;5.97;4.57;;;9.90;99.90;;;;;;4837295;29;20136;-94
2023/04/24 05:37:54;;;;;;;5.90;4.18;;;10.00;99.90;;;;;;4849388;29;20060;-95
2023/04/24 05:40:32;;;;;;;;;;;;;;;;;;;;;
2023/04/24 05:43:34;;;;;;;7.18;4.32;;;10.00;99.90;;;;;;4877999;29;20096;-95
2023/04/24 05:47:01;;;;;;;6.75;4.72;;;9.80;99.90;;;;;;4855924;29;20049;-96
2023/04/24 05:49:19;;;;;;;6.60;4.40;;;10.10;99.90;;;;;;4871190;29;20064;-96
2023/04/24 05:51:45;;;;;;;6.28;4.57;;;10.10;99.90;;;;;;4853990;29;20108;-93
2023/04/24 05:54:14;;;;;;;8.20;4.32;;;10.10;99.90;;;;;;4881017;29;20065;-93
2023/04/24 05:56:43;;;;;;;8.13;4.88;;;10.20;99.90;;;;;;4863078;29;20049;-93
2023/04/24 05:59:09;;;;;;;7.00;4.65;;;10.20;99.90;;;;;;4857623;29;20068;-93
2023/04/24 06:01:37;;;;;;;10.10;4.80;;;9.60;99.90;;;;;;4870580;29;20060;-95
2023/04/24 06:04:04;;;;;;;9.45;4.57;;;10.20;99.90;;;;;;4869883;29;20045;-94
2023/04/24 06:06:31;;;;;;;7.90;4.22;;;10.20;99.90;;;;;;4866805;29;20056;-96
2023/04/24 06:08:59;;;;;;;8.93;4.65;;;10.20;99.90;;;;;;4870455;29;20037;-95
2023/04/24 06:11:45;;;;;;;7.20;4.28;;;10.20;99.90;;;;;;4850628;29;20088;-95
2023/04/24 06:14:17;;;;;;;9.60;4.93;;;10.20;99.90;;;;;;4844883;29;20045;-93
2023/04/24 06:17:19;;;;;;;8.10;4.78;;;10.20;99.90;;;;;;4866515;29;20058;-96
2023/04/24 06:20:03;;;;;;;;;;;;;;;;;;;;;
2023/04/24 06:22:47;;;;;;;8.40;5.00;;;9.90;99.90;;;;;;4855149;29;20147;-93
2023/04/24 06:28:46;;;;;;;8.10;5.03;;;10.10;99.90;;;;;;4838522;29;20189;-95
2023/04/24 06:31:15;;;;;;;21.77;13.25;;;9.60;99.90;;;;;;4835202;29;20081;-95
2023/04/24 06:33:42;;;;;;;10.20;6.00;;;10.10;99.90;;;;;;4839765;29;20525;-96
2023/04/24 06:40:48;;;;;;;10.93;6.63;;;10.00;99.90;;;;;;4856299;29;20174;-92
2023/04/24 06:59:38;;;;;;;9.73;5.43;;;9.80;99.90;;;;;;4766951;29;20059;-91
2023/04/24 07:09:05;;;;;;;;;;;;;;;;;;;;;
2023/04/24 07:12:28;;;;;;;3.88;2.00;;;10.30;99.90;;;;;;4839374;29;20488;-91
2023/04/24 07:15:50;;;;;;;;;;;;;;;;;;;;;
2023/04/24 07:18:56;;;;;;;3.08;0.95;;;10.30;99.90;;;;;;4850658;29;20072;-92
2023/04/24 07:22:40;;;;;;;;;;;;;;;;;;;;;
2023/04/24 07:25:44;;;;;;;5.25;1.70;;;10.30;99.90;;;;;;4850472;29;20052;-92
2023/04/24 07:32:07;;;;;;;;;;;;;;;;;;;;;
2023/04/24 07:35:15;;;;;;;5.80;2.25;;;10.10;99.90;;;;;;4816169;23;20073;-91
2023/04/24 07:37:45;;;;;;;7.35;2.13;;;10.00;99.90;;;;;;4853616;29;20060;-89
2023/04/24 07:41:02;;;;;;;6.43;2.20;;;10.00;99.90;;;;;;4851213;29;20073;-90
2023/04/24 07:44:51;;;;;;;9.20;2.28;;;9.90;99.90;;;;;;4832540;29;20102;-90
2023/04/24 07:47:15;;;;;;;7.93;3.38;;;9.90;99.90;;;;;;4837269;29;20121;-89
2023/04/24 07:49:45;;;;;;;7.30;3.40;;;9.80;99.90;;;;;;4865181;29;20038;-90
2023/04/24 07:52:55;;;;;;;7.82;3.40;;;9.90;99.90;;;;;;4853013;29;20045;-91
2023/04/24 07:58:21;;;;;;;;;;;;;;;;;;;;;
2023/04/24 08:01:35;;;;;;;8.75;2.90;;;9.70;99.90;;;;;;4890347;29;20056;-90
2023/04/24 08:04:01;;;;;;;10.35;2.90;;;9.80;99.90;;;;;;4860542;29;20057;-88
2023/04/24 08:06:30;;;;;;;7.65;2.92;;;9.90;99.90;;;;;;4840388;29;20049;-88
2023/04/24 08:09:36;;;;;;;10.52;3.92;;;9.70;99.90;;;;;;4836102;29;20124;-93
2023/04/24 08:11:45;;;;;;;10.27;4.93;;;9.80;99.90;;;;;;4870131;29;20053;-95
2023/04/24 08:14:21;;;;;;;;;;;;;;;;;;;;;
2023/04/24 08:16:55;;;;;;;14.95;6.80;;;9.70;99.90;;;;;;4867186;29;20114;-92
2023/04/24 08:19:21;;;;;;;13.60;6.57;;;9.60;99.90;;;;;;4834569;29;20139;-90
2023/04/24 08:21:47;;;;;;;14.20;7.28;;;9.60;99.90;;;;;;4856704;29;20144;-91
2023/04/24 08:24:49;;;;;;;;;;;;;;;;;;;;;
2023/04/24 08:27:43;;;;;;;;;;;;;;;;;;;;;
2023/04/24 08:30:24;;;;;;;28.70;13.13;;;9.60;99.90;;;;;;4874797;29;20057;-95
2023/04/24 08:32:50;;;;;;;24.95;14.35;;;9.50;99.90;;;;;;4877821;29;20037;-92
2023/04/24 08:35:15;;;;;;;25.33;13.95;;;9.60;99.90;;;;;;4828348;29;20551;-89
2023/04/24 08:37:41;;;;;;;21.58;12.60;;;9.50;99.90;;;;;;4827408;29;20043;-91
2023/04/24 08:40:31;;;;;;;25.20;13.63;;;9.60;99.90;;;;;;4825160;29;20053;-91
2023/04/24 08:43:00;;;;;;;23.45;11.35;;;9.50;99.90;;;;;;4829453;29;20046;-92
2023/04/24 08:45:26;;;;;;;21.67;11.93;;;9.40;99.90;;;;;;4837602;29;20045;-92
2023/04/24 08:47:55;;;;;;;21.42;11.55;;;9.50;99.90;;;;;;4842668;29;20045;-92
2023/04/24 08:50:24;;;;;;;22.45;11.27;;;9.50;99.90;;;;;;4827747;29;20046;-93
2023/04/24 08:52:52;;;;;;;19.35;11.35;;;9.40;99.90;;;;;;4860886;29;20057;-90
2023/04/24 08:55:20;;;;;;;23.77;12.50;;;9.40;99.90;;;;;;4827086;29;20041;-92
2023/04/24 08:57:51;;;;;;;23.20;10.52;;;9.40;99.90;;;;;;4842824;29;20214;-92
2023/04/24 09:00:18;;;;;;;17.58;10.57;;;9.30;99.90;;;;;;4827336;29;20052;-92
2023/04/24 09:02:45;;;;;;;23.20;12.23;;;9.30;99.90;;;;;;4859854;29;20046;-91
2023/04/24 09:05:12;;;;;;;21.73;10.75;;;9.20;99.90;;;;;;4868799;29;20041;-91
2023/04/24 09:07:47;;;;;;;20.30;11.48;;;8.70;99.90;;;;;;4834951;29;20042;-92
2023/04/24 09:10:17;;;;;;;22.48;10.45;;;9.20;99.90;;;;;;4858640;29;20105;-93
2023/04/24 09:12:44;;;;;;;22.58;11.40;;;9.40;99.90;;;;;;4829948;29;20049;-93
2023/04/24 09:15:11;;;;;;;23.48;11.15;;;9.10;99.90;;;;;;4828932;29;20564;-93
2023/04/24 09:17:49;;;;;;;21.80;10.82;;;9.10;99.90;;;;;;4827194;29;20101;-91
2023/04/24 09:20:15;;;;;;;20.67;11.23;;;8.70;99.90;;;;;;4826655;29;20410;-92
2023/04/24 09:22:43;;;;;;;19.77;10.57;;;9.50;99.90;;;;;;4836675;29;20085;-92
2023/04/24 09:25:12;;;;;;;24.88;11.80;;;9.00;99.90;;;;;;4892056;29;20101;-91
2023/04/24 09:27:45;;;;;;;17.08;10.50;;;9.10;99.90;;;;;;4849088;29;20142;-91
2023/04/24 09:30:11;;;;;;;17.27;9.68;;;9.00;99.90;;;;;;4831770;29;20074;-92
2023/04/24 09:32:44;;;;;;;21.27;8.93;;;9.00;99.90;;;;;;4858197;29;20407;-92
2023/04/24 09:35:13;;;;;;;15.63;9.82;;;9.00;99.90;;;;;;4872505;29;20041;-92
2023/04/24 09:37:41;;;;;;;15.02;8.55;;;9.10;99.90;;;;;;4859619;29;20050;-92
2023/04/24 09:40:16;;;;;;;15.10;8.32;;;9.20;99.90;;;;;;4860527;29;20049;-91
2023/04/24 09:42:51;;;;;;;12.73;7.70;;;9.20;99.90;;;;;;4859849;29;20105;-90
2023/04/24 09:45:17;;;;;;;18.95;6.88;;;9.20;99.90;;;;;;4861766;29;20041;-91
2023/04/24 09:48:07;;;;;;;15.98;6.20;;;9.20;99.90;;;;;;4880931;23;20050;-91
2023/04/24 09:50:46;;;;;;;19.83;6.68;;;9.10;99.90;;;;;;4841779;29;20052;-91
2023/04/24 09:53:12;;;;;;;20.00;7.47;;;9.20;99.90;;;;;;4856117;29;20057;-91
2023/04/24 09:55:40;;;;;;;15.50;7.70;;;9.10;99.90;;;;;;4857856;29;20041;-91
2023/04/24 09:58:10;;;;;;;20.42;7.90;;;9.10;99.90;;;;;;4871942;29;20124;-92
2023/04/24 10:01:58;;;;;;;;;;;;;;;;;;;;;
2023/04/24 10:03:56;;;;;;;13.77;6.20;;;9.10;99.90;;;;;;4858830;29;20049;-93
2023/04/24 10:06:22;;;;;;;18.95;6.85;;;9.10;99.90;;;;;;4839489;29;20050;-92
2023/04/24 10:08:59;;;;;;;;;;;;;;;;;;;;;
2023/04/24 10:11:46;;;;;;;15.32;5.07;;;8.90;99.90;;;;;;4870058;29;20105;-93
2023/04/24 10:14:20;;;;;;;10.70;3.75;;;9.90;99.90;;;;;;4846299;29;20076;-93
2023/04/24 10:16:49;;;;;;;13.57;4.60;;;9.50;99.90;;;;;;4863853;29;20137;-93
2023/04/24 10:19:26;;;;;;;15.30;4.38;;;9.60;99.90;;;;;;4862884;29;20639;-93
2023/04/24 10:21:55;;;;;;;10.20;3.97;;;9.80;99.90;;;;;;4863298;29;20841;-93
2023/04/24 10:24:21;;;;;;;13.50;4.18;;;9.90;99.90;;;;;;4864052;29;20045;-93
2023/04/24 10:27:01;;;;;;;13.15;3.40;;;10.00;99.90;;;;;;4856122;29;20048;-93
2023/04/24 10:29:43;;;;;;;7.78;3.15;;;10.20;99.90;;;;;;4851954;29;20049;-95
2023/04/24 10:32:11;;;;;;;8.65;2.47;;;10.30;99.90;;;;;;4845020;29;20052;-93
2023/04/24 10:35:15;;;;;;;;;;;;;;;;;;;;;
2023/04/24 10:38:24;;;;;;;13.57;2.55;;;10.50;99.90;;;;;;4900588;23;20080;-95
2023/04/24 10:41:08;;;;;;;8.88;3.03;;;10.60;99.90;;;;;;4840813;29;20053;-93
2023/04/24 10:43:34;;;;;;;15.95;3.28;;;10.70;99.90;;;;;;4864042;29;20051;-94
2023/04/24 10:46:06;;;;;;;11.10;3.05;;;10.60;99.90;;;;;;4876103;29;20087;-95
2023/04/24 10:48:33;;;;;;;10.65;2.60;;;10.70;99.90;;;;;;4846343;29;20424;-93
2023/04/24 10:50:59;;;;;;;9.57;3.05;;;10.90;99.90;;;;;;4851481;29;20056;-93
2023/04/24 10:53:29;;;;;;;12.70;2.80;;;10.90;99.90;;;;;;4862997;29;20088;-95
2023/04/24 10:56:21;;;;;;;8.75;2.50;;;10.90;99.90;;;;;;4853535;29;20472;-94
2023/04/24 10:58:52;;;;;;;8.53;2.40;;;11.50;99.90;;;;;;4862684;29;20516;-95
2023/04/24 11:01:32;;;;;;;10.40;2.78;;;10.90;99.90;;;;;;4844538;29;20070;-95
2023/04/24 11:04:01;;;;;;;9.82;2.42;;;11.00;99.90;;;;;;4857529;29;20060;-94
2023/04/24 11:06:33;;;;;;;10.75;2.50;;;11.20;99.90;;;;;;4847190;29;20048;-96
2023/04/24 11:09:12;;;;;;;9.05;3.33;;;11.00;99.90;;;;;;4863375;29;20053;-92
2023/04/24 11:12:13;;;;;;;13.65;2.90;;;11.00;99.90;;;;;;4870346;29;20048;-95
2023/04/24 11:17:50;;;;;;;11.10;2.17;;;10.90;99.90;;;;;;4925813;23;20068;-92
2023/04/24 11:20:40;;;;;;;9.00;2.22;;;10.90;99.90;;;;;;4867784;29;20191;-95
2023/04/24 11:23:23;;;;;;;8.98;2.00;;;10.40;99.90;;;;;;4845788;29;20059;-94
2023/04/24 11:26:22;;;;;;;11.55;2.15;;;10.80;99.90;;;;;;4852606;29;20149;-94
2023/04/24 11:28:50;;;;;;;10.50;2.20;;;10.70;99.90;;;;;;4827789;29;20060;-93
2023/04/24 11:31:36;;;;;;;9.90;2.00;;;10.60;99.90;;;;;;4845715;29;20406;-88
2023/04/24 11:34:08;;;;;;;8.55;2.00;;;10.50;99.90;;;;;;4843775;29;20060;-93
2023/04/24 11:36:43;;;;;;;8.68;1.95;;;10.50;99.90;;;;;;4847888;29;20454;-96
2023/04/24 11:39:12;;;;;;;7.25;1.90;;;11.20;99.90;;;;;;4847596;29;20109;-93
2023/04/24 11:41:38;;;;;;;12.88;2.53;;;10.80;99.90;;;;;;4846995;29;20097;-91
2023/04/24 11:44:09;;;;;;;10.60;1.88;;;10.40;99.90;;;;;;4846931;29;20041;-94
2023/04/24 11:46:37;;;;;;;12.50;2.17;;;10.30;99.90;;;;;;4843122;29;20053;-92
2023/04/24 11:49:59;;;;;;;13.85;2.20;;;10.30;99.90;;;;;;4848983;29;20344;-95
2023/04/24 11:52:03;;;;;;;10.88;2.10;;;10.10;99.90;;;;;;4858455;29;20051;-94
2023/04/24 11:54:31;;;;;;;11.00;1.67;;;10.30;99.90;;;;;;4859426;29;20212;-96
2023/04/24 11:57:06;;;;;;;11.25;1.50;;;10.10;99.90;;;;;;4873323;29;20059;-95
2023/04/24 12:00:07;;;;;;;6.45;1.55;;;10.40;99.90;;;;;;4846990;29;20085;-96
2023/04/24 12:03:26;;;;;;;13.95;1.67;;;10.20;99.90;;;;;;4806678;29;20049;-93
2023/04/24 12:05:40;;;;;;;8.95;1.92;;;10.60;99.90;;;;;;4855407;29;20068;-95
2023/04/24 12:08:06;;;;;;;13.38;2.08;;;10.20;99.90;;;;;;4849258;29;20049;-96
2023/04/24 12:10:32;;;;;;;10.48;1.90;;;10.40;99.90;;;;;;4851734;29;20045;-96
2023/04/24 12:12:59;;;;;;;8.95;1.63;;;10.00;99.90;;;;;;4864763;29;20498;-96
2023/04/24 12:15:26;;;;;;;9.52;2.03;;;10.00;99.90;;;;;;4855694;29;20109;-96
2023/04/24 12:17:54;;;;;;;9.40;1.85;;;10.00;99.90;;;;;;4853428;29;20053;-96
2023/04/24 12:20:35;;;;;;;12.52;2.45;;;9.80;99.90;;;;;;4841213;29;20049;-96
2023/04/24 12:23:01;;;;;;;14.13;1.85;;;9.70;99.90;;;;;;4896940;29;20037;-96
2023/04/24 12:25:29;;;;;;;13.07;1.88;;;9.70;99.90;;;;;;4866340;29;20085;-96
2023/04/24 12:28:10;;;;;;;7.53;1.73;;;9.70;99.90;;;;;;4854237;29;20077;-96
2023/04/24 12:30:44;;;;;;;7.53;1.40;;;9.80;99.90;;;;;;4863738;29;20084;-96
2023/04/24 12:33:17;;;;;;;10.90;2.60;;;9.90;99.90;;;;;;4848992;29;20071;-96
2023/04/24 12:35:55;;;;;;;10.00;1.60;;;10.10;99.90;;;;;;4883776;29;20049;-96
2023/04/24 12:38:26;;;;;;;8.00;1.30;;;10.50;99.90;;;;;;4859273;29;20047;-96
2023/04/24 12:44:50;;;;;;;6.47;1.10;;;10.60;99.90;;;;;;5044788;23;20065;-96
2023/04/24 12:47:24;;;;;;;10.20;1.48;;;10.50;99.90;;;;;;4872559;29;20033;-96
2023/04/24 12:49:56;;;;;;;5.38;1.30;;;10.90;99.90;;;;;;4858917;29;20128;-96
2023/04/24 12:52:39;;;;;;;7.97;1.00;;;11.50;99.90;;;;;;4876197;29;20056;-96
2023/04/24 12:55:17;;;;;;;6.57;1.05;;;10.90;99.90;;;;;;4890669;29;20049;-96
2023/04/24 12:57:48;;;;;;;9.30;1.05;;;10.90;99.90;;;;;;4865716;29;20081;-96
2023/04/24 13:00:17;;;;;;;4.30;0.75;;;10.80;99.90;;;;;;4849035;29;20045;-96
2023/04/24 13:03:04;;;;;;;4.50;1.38;;;10.60;99.90;;;;;;4882659;29;20040;-96
2023/04/24 13:05:31;;;;;;;4.15;1.05;;;10.70;99.90;;;;;;4847680;29;20037;-96
2023/04/24 13:08:02;;;;;;;5.78;0.93;;;10.40;99.90;;;;;;4886070;29;20101;-96
2023/04/24 13:16:54;;;;;;;4.90;1.00;;;10.00;99.90;;;;;;5029102;23;20130;-96
2023/04/24 13:19:26;;;;;;;7.28;1.00;;;9.80;99.90;;;;;;5124808;23;20053;-96
2023/04/24 13:21:57;;;;;;;11.63;1.63;;;9.70;99.90;;;;;;4864611;29;20120;-96
2023/04/24 13:24:24;;;;;;;9.23;1.50;;;9.70;99.90;;;;;;5072082;23;20160;-96
2023/04/24 13:26:51;;;;;;;8.40;1.67;;;9.60;99.90;;;;;;4869531;23;20103;-96
2023/04/24 13:29:19;;;;;;;7.70;1.30;;;9.50;99.90;;;;;;4845321;29;20061;-96
2023/04/24 13:32:00;;;;;;;9.07;1.50;;;9.50;99.90;;;;;;4834877;29;20049;-96
2023/04/24 13:42:32;;;;;;;7.20;1.48;;;9.60;99.90;;;;;;4892901;29;20045;-96
2023/04/24 13:44:59;;;;;;;5.75;0.98;;;9.80;99.90;;;;;;4874657;29;20053;-96
2023/04/24 13:47:26;;;;;;;7.30;0.93;;;9.80;99.90;;;;;;4849971;29;20051;-96
2023/04/24 13:49:54;;;;;;;7.40;1.25;;;9.70;99.90;;;;;;4869737;29;20061;-96
2023/04/24 13:52:31;;;;;;;8.00;1.02;;;10.00;99.90;;;;;;4872722;29;20087;-96
2023/04/24 13:54:57;;;;;;;8.18;0.80;;;10.10;99.90;;;;;;4855724;29;20057;-96
2023/04/24 13:57:36;;;;;;;3.88;0.60;;;10.20;99.90;;;;;;4861186;29;20049;-96
2023/04/24 14:00:10;;;;;;;3.28;0.60;;;10.30;99.90;;;;;;4880610;29;20079;-96
2023/04/24 14:02:58;;;;;;;6.07;0.90;;;10.10;99.90;;;;;;4859557;29;20084;-96
2023/04/24 14:05:24;;;;;;;4.07;0.73;;;10.10;99.90;;;;;;4863389;29;20104;-96
2023/04/24 14:08:19;;;;;;;6.07;0.95;;;10.00;99.90;;;;;;4917778;23;20049;-96
2023/04/24 14:10:45;;;;;;;7.97;1.27;;;10.30;99.90;;;;;;4857049;29;20073;-94
2023/04/24 14:13:20;;;;;;;6.28;1.23;;;9.80;99.90;;;;;;4859120;29;20510;-96
2023/04/24 14:15:58;;;;;;;9.43;1.50;;;9.70;99.90;;;;;;4887954;29;20079;-86
2023/04/24 14:18:54;;;;;;;10.13;1.92;;;9.50;99.90;;;;;;4869178;29;20041;-96
2023/04/24 14:25:52;;;;;;;;;;;;;;;;;;;;;
2023/04/24 14:28:22;;;;;;;9.82;1.95;;;8.90;99.90;;;;;;4894408;29;20036;-96
2023/04/24 14:31:15;;;;;;;10.57;1.98;;;9.60;99.90;;;;;;4865152;29;20053;-96
2023/04/24 14:44:25;;;;;;;;;;;;;;;;;;;;;
2023/04/24 14:47:20;;;;;;;12.93;2.00;;;9.30;99.90;;;;;;4870695;29;20053;-95
2023/04/24 14:57:55;;;;;;;;;;;;;;;;;;;;;
2023/04/24 15:00:59;;;;;;;11.23;2.08;;;9.60;99.90;;;;;;4880432;29;20049;-96
2023/04/24 15:10:46;;;;;;;;;;;;;;;;;;;;;
2023/04/24 15:20:22;;;;;;;16.77;3.05;;;9.40;99.90;;;;;;4871622;29;20064;-96
2023/04/24 15:23:05;;;;;;;;;;;;;;;;;;;;;
2023/04/24 15:30:21;;;;;;;18.13;3.25;;;8.80;99.90;;;;;;4867936;29;20105;-96
2023/04/24 15:33:15;;;;;;;14.13;3.92;;;8.80;99.90;;;;;;4858989;29;20080;-96
2023/04/24 15:36:28;;;;;;;;;;;9.20;99.90;;;;;;4849658;29;20063;-96
2023/04/24 15:45:49;;;;;;;17.45;4.22;;;9.30;99.90;;;;;;4879618;29;20211;-96
2023/04/24 15:51:51;;;;;;;15.48;3.55;;;9.40;99.90;;;;;;4847638;29;20058;-96
2023/04/24 16:05:07;;;;;;;;;;;;;;;;;;;;;
2023/04/24 16:07:58;;;;;;;;;;;;;;;;;;;;;
2023/04/24 16:10:33;;;;;;;20.45;4.20;;;9.10;99.90;;;;;;4850359;29;20067;-96
2023/04/24 16:13:35;;;;;;;14.73;4.35;;;9.00;99.90;;;;;;4832450;29;20128;-95
2023/04/24 16:16:05;;;;;;;19.20;4.18;;;8.50;99.90;;;;;;4900152;23;20061;-96
2023/04/24 16:18:36;;;;;;;18.38;4.35;;;8.90;99.90;;;;;;4861445;29;20112;-94
2023/04/24 16:21:08;;;;;;;20.27;4.43;;;8.80;99.90;;;;;;4856801;29;20443;-96
2023/04/24 16:23:36;;;;;;;18.58;4.60;;;8.80;99.90;;;;;;4877028;29;20040;-96
2023/04/24 16:26:02;;;;;;;20.23;5.00;;;8.80;99.90;;;;;;4851607;29;20044;-96
2023/04/24 16:28:37;;;;;;;14.05;4.50;;;8.80;99.90;;;;;;4852109;29;20413;-95
2023/04/24 17:07:34;;;;;;;12.05;2.40;;;8.50;99.90;;;;;;1613984;23;20329;-96
2023/04/24 17:16:54;;;;;;;12.43;2.72;;;8.00;99.90;;;;;;4852900;29;20172;-96
2023/04/24 17:19:26;;;;;;;6.28;1.75;;;8.60;99.90;;;;;;4879212;29;20057;-96
2023/04/24 17:21:56;;;;;;;6.57;1.63;;;8.60;99.90;;;;;;4844319;29;20553;-95
2023/04/24 17:24:23;;;;;;;4.72;1.80;;;8.60;99.90;;;;;;4863994;29;20057;-95
2023/04/24 17:27:24;;;;;;;;;;;;;;;;;;;;;
2023/04/24 17:30:19;;;;;;;;;;;;;;;;;;;;;
2023/04/24 17:33:38;;;;;;;6.07;1.52;;;8.60;99.90;;;;;;4883192;29;20585;-96
2023/04/24 17:36:37;;;;;;;;;;;;;;;;;;;;;
2023/04/24 17:48:56;;;;;;;6.03;2.10;;;8.20;99.90;;;;;;4846754;29;20060;-96
2023/04/24 17:51:22;;;;;;;5.15;1.75;;;8.10;99.90;;;;;;4859347;29;20501;-96
2023/04/24 17:53:51;;;;;;;7.88;1.65;;;8.10;99.90;;;;;;4860847;29;20132;-95
2023/04/24 17:56:19;;;;;;;8.55;1.83;;;8.10;99.90;;;;;;4848506;29;20556;-94
2023/04/24 17:58:50;;;;;;;5.40;1.55;;;8.10;99.90;;;;;;4869982;23;20440;-95
2023/04/24 18:01:19;;;;;;;4.68;1.40;;;8.10;99.90;;;;;;4856096;29;20059;-94